sensor_id;sensor_type;location;lat;lon;timestamp;P1;durP1;ratioP1;P2;durP2;ratioP2
76606;SDS011;65498;50.916;4.698;2023-03-11T00:00:33;5.75;;;2.10;;
76606;SDS011;65498;50.916;4.698;2023-03-11T00:03:02;6.15;;;1.87;;
76606;SDS011;65498;50.916;4.698;2023-03-11T00:05:40;6.78;;;2.10;;
76606;SDS011;65498;50.916;4.698;2023-03-11T00:08:04;6.90;;;2.20;;
76606;SDS011;65498;50.916;4.698;2023-03-11T00:10:34;4.85;;;1.75;;
76606;SDS011;65498;50.916;4.698;2023-03-11T00:13:03;5.03;;;2.33;;
76606;SDS011;65498;50.916;4.698;2023-03-11T00:15:32;6.27;;;2.00;;
76606;SDS011;65498;50.916;4.698;2023-03-11T00:18:00;5.90;;;1.77;;
76606;SDS011;65498;50.916;4.698;2023-03-11T00:20:28;6.17;;;2.40;;
76606;SDS011;65498;50.916;4.698;2023-03-11T00:22:58;6.05;;;2.20;;
76606;SDS011;65498;50.916;4.698;2023-03-11T00:25:28;6.60;;;2.10;;
76606;SDS011;65498;50.916;4.698;2023-03-11T00:27:57;5.80;;;2.12;;
76606;SDS011;65498;50.916;4.698;2023-03-11T00:30:25;5.12;;;2.00;;
76606;SDS011;65498;50.916;4.698;2023-03-11T00:32:54;8.08;;;2.75;;
76606;SDS011;65498;50.916;4.698;2023-03-11T00:35:24;5.22;;;2.00;;
76606;SDS011;65498;50.916;4.698;2023-03-11T00:37:55;7.65;;;2.47;;
76606;SDS011;65498;50.916;4.698;2023-03-11T00:40:25;5.00;;;1.95;;
76606;SDS011;65498;50.916;4.698;2023-03-11T00:42:55;5.80;;;2.37;;
76606;SDS011;65498;50.916;4.698;2023-03-11T00:45:23;6.92;;;2.42;;
76606;SDS011;65498;50.916;4.698;2023-03-11T00:47:52;6.35;;;2.20;;
76606;SDS011;65498;50.916;4.698;2023-03-11T00:50:22;6.78;;;2.10;;
76606;SDS011;65498;50.916;4.698;2023-03-11T00:52:51;6.30;;;2.08;;
76606;SDS011;65498;50.916;4.698;2023-03-11T00:55:24;5.80;;;2.12;;
76606;SDS011;65498;50.916;4.698;2023-03-11T00:57:53;5.97;;;2.05;;
76606;SDS011;65498;50.916;4.698;2023-03-11T01:02:51;12.88;;;3.58;;
76606;SDS011;65498;50.916;4.698;2023-03-11T01:05:20;11.38;;;4.05;;
76606;SDS011;65498;50.916;4.698;2023-03-11T01:10:16;8.45;;;2.95;;
76606;SDS011;65498;50.916;4.698;2023-03-11T01:12:44;10.65;;;3.47;;
76606;SDS011;65498;50.916;4.698;2023-03-11T01:15:19;11.53;;;2.98;;
76606;SDS011;65498;50.916;4.698;2023-03-11T01:17:51;10.40;;;3.55;;
76606;SDS011;65498;50.916;4.698;2023-03-11T01:20:19;12.95;;;3.67;;
76606;SDS011;65498;50.916;4.698;2023-03-11T01:22:47;10.85;;;3.12;;
76606;SDS011;65498;50.916;4.698;2023-03-11T01:25:15;15.08;;;4.05;;
76606;SDS011;65498;50.916;4.698;2023-03-11T01:27:44;10.95;;;3.20;;
76606;SDS011;65498;50.916;4.698;2023-03-11T01:30:19;8.88;;;2.67;;
76606;SDS011;65498;50.916;4.698;2023-03-11T01:32:48;10.23;;;3.00;;
76606;SDS011;65498;50.916;4.698;2023-03-11T01:35:17;17.17;;;4.25;;
76606;SDS011;65498;50.916;4.698;2023-03-11T01:37:45;16.75;;;3.52;;
76606;SDS011;65498;50.916;4.698;2023-03-11T01:40:17;7.25;;;2.55;;
76606;SDS011;65498;50.916;4.698;2023-03-11T01:42:46;8.98;;;2.70;;
76606;SDS011;65498;50.916;4.698;2023-03-11T01:45:25;13.30;;;3.10;;
76606;SDS011;65498;50.916;4.698;2023-03-11T01:47:56;11.08;;;3.15;;
76606;SDS011;65498;50.916;4.698;2023-03-11T01:50:24;11.57;;;3.70;;
76606;SDS011;65498;50.916;4.698;2023-03-11T01:52:54;10.30;;;2.90;;
76606;SDS011;65498;50.916;4.698;2023-03-11T01:55:22;11.93;;;3.45;;
76606;SDS011;65498;50.916;4.698;2023-03-11T01:57:49;10.03;;;3.92;;
76606;SDS011;65498;50.916;4.698;2023-03-11T02:00:19;9.70;;;3.02;;
76606;SDS011;65498;50.916;4.698;2023-03-11T02:02:48;11.15;;;3.02;;
76606;SDS011;65498;50.916;4.698;2023-03-11T02:05:20;13.32;;;2.65;;
76606;SDS011;65498;50.916;4.698;2023-03-11T02:07:49;9.30;;;2.58;;
76606;SDS011;65498;50.916;4.698;2023-03-11T02:10:19;10.82;;;2.58;;
76606;SDS011;65498;50.916;4.698;2023-03-11T02:12:47;11.60;;;2.60;;
76606;SDS011;65498;50.916;4.698;2023-03-11T02:15:17;9.70;;;3.35;;
76606;SDS011;65498;50.916;4.698;2023-03-11T02:17:44;14.03;;;2.60;;
76606;SDS011;65498;50.916;4.698;2023-03-11T02:22:55;6.17;;;2.20;;
76606;SDS011;65498;50.916;4.698;2023-03-11T02:28:09;9.28;;;2.70;;
76606;SDS011;65498;50.916;4.698;2023-03-11T02:30:39;10.10;;;2.52;;
76606;SDS011;65498;50.916;4.698;2023-03-11T02:33:09;7.17;;;2.58;;
76606;SDS011;65498;50.916;4.698;2023-03-11T02:35:38;7.22;;;2.20;;
76606;SDS011;65498;50.916;4.698;2023-03-11T02:38:06;8.03;;;2.25;;
76606;SDS011;65498;50.916;4.698;2023-03-11T02:43:12;6.62;;;2.25;;
76606;SDS011;65498;50.916;4.698;2023-03-11T02:45:37;8.15;;;2.58;;
76606;SDS011;65498;50.916;4.698;2023-03-11T02:48:07;7.63;;;2.43;;
76606;SDS011;65498;50.916;4.698;2023-03-11T02:50:35;8.13;;;2.27;;
76606;SDS011;65498;50.916;4.698;2023-03-11T02:53:03;9.55;;;2.50;;
76606;SDS011;65498;50.916;4.698;2023-03-11T02:55:32;8.90;;;2.85;;
76606;SDS011;65498;50.916;4.698;2023-03-11T02:58:00;8.88;;;2.45;;
76606;SDS011;65498;50.916;4.698;2023-03-11T03:00:27;5.92;;;2.05;;
76606;SDS011;65498;50.916;4.698;2023-03-11T03:02:55;7.53;;;2.10;;
76606;SDS011;65498;50.916;4.698;2023-03-11T03:05:23;6.62;;;2.30;;
76606;SDS011;65498;50.916;4.698;2023-03-11T03:07:50;7.90;;;2.35;;
76606;SDS011;65498;50.916;4.698;2023-03-11T03:10:19;8.95;;;2.17;;
76606;SDS011;65498;50.916;4.698;2023-03-11T03:12:47;5.95;;;2.10;;
76606;SDS011;65498;50.916;4.698;2023-03-11T03:15:14;7.58;;;2.15;;
76606;SDS011;65498;50.916;4.698;2023-03-11T03:17:42;6.12;;;1.80;;
76606;SDS011;65498;50.916;4.698;2023-03-11T03:20:11;6.47;;;2.00;;
76606;SDS011;65498;50.916;4.698;2023-03-11T03:22:39;7.12;;;1.90;;
76606;SDS011;65498;50.916;4.698;2023-03-11T03:25:08;7.80;;;2.52;;
76606;SDS011;65498;50.916;4.698;2023-03-11T03:27:36;8.53;;;2.22;;
76606;SDS011;65498;50.916;4.698;2023-03-11T03:30:05;4.65;;;1.60;;
76606;SDS011;65498;50.916;4.698;2023-03-11T03:32:33;5.40;;;1.65;;
76606;SDS011;65498;50.916;4.698;2023-03-11T03:35:01;4.72;;;1.72;;
76606;SDS011;65498;50.916;4.698;2023-03-11T03:37:31;8.00;;;2.27;;
76606;SDS011;65498;50.916;4.698;2023-03-11T03:40:01;5.80;;;1.87;;
76606;SDS011;65498;50.916;4.698;2023-03-11T03:42:34;6.70;;;1.70;;
76606;SDS011;65498;50.916;4.698;2023-03-11T03:45:07;5.53;;;2.03;;
76606;SDS011;65498;50.916;4.698;2023-03-11T03:47:33;5.85;;;1.92;;
76606;SDS011;65498;50.916;4.698;2023-03-11T03:50:02;6.62;;;1.82;;
76606;SDS011;65498;50.916;4.698;2023-03-11T03:52:30;6.45;;;1.60;;
76606;SDS011;65498;50.916;4.698;2023-03-11T03:54:58;5.22;;;1.75;;
76606;SDS011;65498;50.916;4.698;2023-03-11T03:57:27;7.15;;;1.77;;
76606;SDS011;65498;50.916;4.698;2023-03-11T03:59:55;9.28;;;1.87;;
76606;SDS011;65498;50.916;4.698;2023-03-11T04:02:22;5.45;;;1.67;;
76606;SDS011;65498;50.916;4.698;2023-03-11T04:04:50;7.00;;;1.80;;
76606;SDS011;65498;50.916;4.698;2023-03-11T04:07:18;7.45;;;2.20;;
76606;SDS011;65498;50.916;4.698;2023-03-11T04:09:45;7.90;;;2.02;;
76606;SDS011;65498;50.916;4.698;2023-03-11T04:12:13;5.47;;;1.55;;
76606;SDS011;65498;50.916;4.698;2023-03-11T04:14:42;4.72;;;1.65;;
76606;SDS011;65498;50.916;4.698;2023-03-11T04:17:10;5.90;;;1.57;;
76606;SDS011;65498;50.916;4.698;2023-03-11T04:19:39;7.47;;;1.82;;
76606;SDS011;65498;50.916;4.698;2023-03-11T04:22:06;3.95;;;1.45;;
76606;SDS011;65498;50.916;4.698;2023-03-11T04:24:34;6.85;;;1.90;;
76606;SDS011;65498;50.916;4.698;2023-03-11T04:27:02;5.20;;;1.67;;
76606;SDS011;65498;50.916;4.698;2023-03-11T04:29:29;5.75;;;1.55;;
76606;SDS011;65498;50.916;4.698;2023-03-11T04:31:57;5.58;;;1.57;;
76606;SDS011;65498;50.916;4.698;2023-03-11T04:34:24;4.62;;;1.57;;
76606;SDS011;65498;50.916;4.698;2023-03-11T04:36:52;6.47;;;2.05;;
76606;SDS011;65498;50.916;4.698;2023-03-11T04:39:20;5.00;;;1.82;;
76606;SDS011;65498;50.916;4.698;2023-03-11T04:41:48;4.12;;;1.80;;
76606;SDS011;65498;50.916;4.698;2023-03-11T04:44:15;5.62;;;1.70;;
76606;SDS011;65498;50.916;4.698;2023-03-11T04:46:43;5.15;;;1.32;;
76606;SDS011;65498;50.916;4.698;2023-03-11T04:49:10;5.70;;;1.62;;
76606;SDS011;65498;50.916;4.698;2023-03-11T04:51:39;6.28;;;1.80;;
76606;SDS011;65498;50.916;4.698;2023-03-11T04:54:07;5.40;;;1.37;;
76606;SDS011;65498;50.916;4.698;2023-03-11T04:56:35;5.72;;;1.60;;
76606;SDS011;65498;50.916;4.698;2023-03-11T04:59:02;5.42;;;1.40;;
76606;SDS011;65498;50.916;4.698;2023-03-11T05:01:30;4.85;;;1.50;;
76606;SDS011;65498;50.916;4.698;2023-03-11T05:03:57;5.25;;;1.52;;
76606;SDS011;65498;50.916;4.698;2023-03-11T05:06:25;4.90;;;1.62;;
76606;SDS011;65498;50.916;4.698;2023-03-11T05:08:52;4.60;;;1.57;;
76606;SDS011;65498;50.916;4.698;2023-03-11T05:11:20;4.67;;;1.50;;
76606;SDS011;65498;50.916;4.698;2023-03-11T05:13:47;4.25;;;1.20;;
76606;SDS011;65498;50.916;4.698;2023-03-11T05:16:15;4.87;;;1.25;;
76606;SDS011;65498;50.916;4.698;2023-03-11T05:18:42;5.42;;;1.40;;
76606;SDS011;65498;50.916;4.698;2023-03-11T05:21:10;7.37;;;1.42;;
76606;SDS011;65498;50.916;4.698;2023-03-11T05:23:37;4.70;;;1.40;;
76606;SDS011;65498;50.916;4.698;2023-03-11T05:26:05;3.90;;;1.50;;
76606;SDS011;65498;50.916;4.698;2023-03-11T05:28:33;4.20;;;1.30;;
76606;SDS011;65498;50.916;4.698;2023-03-11T05:31:00;4.35;;;1.42;;
76606;SDS011;65498;50.916;4.698;2023-03-11T05:33:28;4.00;;;1.30;;
76606;SDS011;65498;50.916;4.698;2023-03-11T05:36:02;4.37;;;1.60;;
76606;SDS011;65498;50.916;4.698;2023-03-11T05:38:30;3.47;;;1.27;;
76606;SDS011;65498;50.916;4.698;2023-03-11T05:40:58;5.92;;;1.62;;
76606;SDS011;65498;50.916;4.698;2023-03-11T05:43:25;4.30;;;1.30;;
76606;SDS011;65498;50.916;4.698;2023-03-11T05:45:53;6.45;;;1.77;;
76606;SDS011;65498;50.916;4.698;2023-03-11T05:48:20;5.00;;;1.50;;
76606;SDS011;65498;50.916;4.698;2023-03-11T05:50:48;4.62;;;1.70;;
76606;SDS011;65498;50.916;4.698;2023-03-11T05:53:15;4.30;;;1.35;;
76606;SDS011;65498;50.916;4.698;2023-03-11T05:55:43;3.47;;;1.27;;
76606;SDS011;65498;50.916;4.698;2023-03-11T05:58:11;4.75;;;1.47;;
76606;SDS011;65498;50.916;4.698;2023-03-11T06:00:38;5.40;;;1.30;;
76606;SDS011;65498;50.916;4.698;2023-03-11T06:03:05;3.67;;;1.17;;
76606;SDS011;65498;50.916;4.698;2023-03-11T06:05:33;5.65;;;1.30;;
76606;SDS011;65498;50.916;4.698;2023-03-11T06:08:01;6.37;;;1.82;;
76606;SDS011;65498;50.916;4.698;2023-03-11T06:10:29;5.90;;;1.57;;
76606;SDS011;65498;50.916;4.698;2023-03-11T06:12:56;3.87;;;1.37;;
76606;SDS011;65498;50.916;4.698;2023-03-11T06:15:24;5.55;;;1.70;;
76606;SDS011;65498;50.916;4.698;2023-03-11T06:17:51;3.70;;;1.40;;
76606;SDS011;65498;50.916;4.698;2023-03-11T06:20:19;5.45;;;1.45;;
76606;SDS011;65498;50.916;4.698;2023-03-11T06:22:49;5.62;;;1.72;;
76606;SDS011;65498;50.916;4.698;2023-03-11T06:25:17;6.05;;;1.45;;
76606;SDS011;65498;50.916;4.698;2023-03-11T06:27:49;5.08;;;1.67;;
76606;SDS011;65498;50.916;4.698;2023-03-11T06:30:18;4.45;;;1.55;;
76606;SDS011;65498;50.916;4.698;2023-03-11T06:32:46;5.45;;;1.50;;
76606;SDS011;65498;50.916;4.698;2023-03-11T06:35:14;5.67;;;1.50;;
76606;SDS011;65498;50.916;4.698;2023-03-11T06:37:41;5.78;;;1.80;;
76606;SDS011;65498;50.916;4.698;2023-03-11T06:40:10;5.55;;;2.12;;
76606;SDS011;65498;50.916;4.698;2023-03-11T06:42:38;5.95;;;2.10;;
76606;SDS011;65498;50.916;4.698;2023-03-11T06:45:06;5.70;;;1.87;;
76606;SDS011;65498;50.916;4.698;2023-03-11T06:47:34;6.15;;;2.40;;
76606;SDS011;65498;50.916;4.698;2023-03-11T06:50:02;6.10;;;2.58;;
76606;SDS011;65498;50.916;4.698;2023-03-11T06:52:31;6.95;;;1.98;;
76606;SDS011;65498;50.916;4.698;2023-03-11T06:54:59;6.97;;;2.25;;
76606;SDS011;65498;50.916;4.698;2023-03-11T06:57:28;6.33;;;2.47;;
76606;SDS011;65498;50.916;4.698;2023-03-11T06:59:56;6.72;;;2.30;;
76606;SDS011;65498;50.916;4.698;2023-03-11T07:02:23;5.90;;;2.25;;
76606;SDS011;65498;50.916;4.698;2023-03-11T07:04:51;7.97;;;2.80;;
76606;SDS011;65498;50.916;4.698;2023-03-11T07:07:18;7.70;;;2.62;;
76606;SDS011;65498;50.916;4.698;2023-03-11T07:09:46;7.03;;;2.22;;
76606;SDS011;65498;50.916;4.698;2023-03-11T07:12:13;7.03;;;2.60;;
76606;SDS011;65498;50.916;4.698;2023-03-11T07:14:42;6.35;;;2.95;;
76606;SDS011;65498;50.916;4.698;2023-03-11T07:17:10;7.17;;;2.72;;
76606;SDS011;65498;50.916;4.698;2023-03-11T07:19:37;6.40;;;2.75;;
76606;SDS011;65498;50.916;4.698;2023-03-11T07:22:05;7.50;;;2.85;;
76606;SDS011;65498;50.916;4.698;2023-03-11T07:24:33;6.40;;;2.50;;
76606;SDS011;65498;50.916;4.698;2023-03-11T07:27:00;8.10;;;2.52;;
76606;SDS011;65498;50.916;4.698;2023-03-11T07:29:28;6.10;;;2.58;;
76606;SDS011;65498;50.916;4.698;2023-03-11T07:31:55;6.83;;;2.80;;
76606;SDS011;65498;50.916;4.698;2023-03-11T07:34:23;7.47;;;2.80;;
76606;SDS011;65498;50.916;4.698;2023-03-11T07:36:50;7.25;;;2.62;;
76606;SDS011;65498;50.916;4.698;2023-03-11T07:39:18;6.92;;;2.50;;
76606;SDS011;65498;50.916;4.698;2023-03-11T07:41:46;7.33;;;2.55;;
76606;SDS011;65498;50.916;4.698;2023-03-11T07:44:14;6.83;;;2.72;;
76606;SDS011;65498;50.916;4.698;2023-03-11T07:46:43;6.50;;;2.50;;
76606;SDS011;65498;50.916;4.698;2023-03-11T07:49:10;7.47;;;2.65;;
76606;SDS011;65498;50.916;4.698;2023-03-11T07:51:38;8.05;;;2.98;;
76606;SDS011;65498;50.916;4.698;2023-03-11T07:54:09;7.12;;;2.65;;
76606;SDS011;65498;50.916;4.698;2023-03-11T07:56:37;6.90;;;2.60;;
76606;SDS011;65498;50.916;4.698;2023-03-11T07:59:05;6.20;;;2.50;;
76606;SDS011;65498;50.916;4.698;2023-03-11T08:01:33;6.40;;;2.95;;
76606;SDS011;65498;50.916;4.698;2023-03-11T08:04:06;6.25;;;2.40;;
76606;SDS011;65498;50.916;4.698;2023-03-11T08:06:36;9.43;;;3.22;;
76606;SDS011;65498;50.916;4.698;2023-03-11T08:09:05;6.10;;;2.60;;
76606;SDS011;65498;50.916;4.698;2023-03-11T08:11:35;11.57;;;3.72;;
76606;SDS011;65498;50.916;4.698;2023-03-11T08:14:03;6.58;;;2.40;;
76606;SDS011;65498;50.916;4.698;2023-03-11T08:16:31;7.30;;;2.58;;
76606;SDS011;65498;50.916;4.698;2023-03-11T08:18:58;8.03;;;3.00;;
76606;SDS011;65498;50.916;4.698;2023-03-11T08:21:26;6.22;;;2.60;;
76606;SDS011;65498;50.916;4.698;2023-03-11T08:23:57;6.15;;;2.47;;
76606;SDS011;65498;50.916;4.698;2023-03-11T08:26:26;5.30;;;2.42;;
76606;SDS011;65498;50.916;4.698;2023-03-11T08:28:55;7.50;;;2.70;;
76606;SDS011;65498;50.916;4.698;2023-03-11T08:31:24;8.40;;;2.50;;
76606;SDS011;65498;50.916;4.698;2023-03-11T08:33:58;6.50;;;2.52;;
76606;SDS011;65498;50.916;4.698;2023-03-11T08:36:27;6.62;;;2.40;;
76606;SDS011;65498;50.916;4.698;2023-03-11T08:38:55;9.03;;;2.62;;
76606;SDS011;65498;50.916;4.698;2023-03-11T08:41:24;6.00;;;2.45;;
76606;SDS011;65498;50.916;4.698;2023-03-11T08:43:52;5.92;;;2.25;;
76606;SDS011;65498;50.916;4.698;2023-03-11T08:48:59;7.12;;;2.65;;
76606;SDS011;65498;50.916;4.698;2023-03-11T08:51:27;7.85;;;2.52;;
76606;SDS011;65498;50.916;4.698;2023-03-11T08:53:56;6.47;;;2.67;;
76606;SDS011;65498;50.916;4.698;2023-03-11T08:56:24;6.45;;;2.35;;
76606;SDS011;65498;50.916;4.698;2023-03-11T08:58:51;7.37;;;2.37;;
76606;SDS011;65498;50.916;4.698;2023-03-11T09:01:19;7.87;;;2.50;;
76606;SDS011;65498;50.916;4.698;2023-03-11T09:03:48;7.15;;;2.15;;
76606;SDS011;65498;50.916;4.698;2023-03-11T09:06:16;6.35;;;2.30;;
76606;SDS011;65498;50.916;4.698;2023-03-11T09:08:43;6.58;;;2.50;;
76606;SDS011;65498;50.916;4.698;2023-03-11T09:11:12;6.83;;;2.47;;
76606;SDS011;65498;50.916;4.698;2023-03-11T09:13:41;6.30;;;2.47;;
76606;SDS011;65498;50.916;4.698;2023-03-11T09:16:17;5.83;;;2.15;;
76606;SDS011;65498;50.916;4.698;2023-03-11T09:18:45;5.55;;;2.10;;
76606;SDS011;65498;50.916;4.698;2023-03-11T09:21:13;6.20;;;2.05;;
76606;SDS011;65498;50.916;4.698;2023-03-11T09:23:41;6.12;;;2.55;;
76606;SDS011;65498;50.916;4.698;2023-03-11T09:26:08;8.00;;;2.67;;
76606;SDS011;65498;50.916;4.698;2023-03-11T09:28:36;6.58;;;1.85;;
76606;SDS011;65498;50.916;4.698;2023-03-11T09:31:04;5.65;;;2.08;;
76606;SDS011;65498;50.916;4.698;2023-03-11T09:33:39;4.83;;;1.75;;
76606;SDS011;65498;50.916;4.698;2023-03-11T09:36:11;6.47;;;2.17;;
76606;SDS011;65498;50.916;4.698;2023-03-11T09:38:41;9.13;;;3.58;;
76606;SDS011;65498;50.916;4.698;2023-03-11T09:47:03;7.40;;;1.95;;
76606;SDS011;65498;50.916;4.698;2023-03-11T09:49:54;5.37;;;1.90;;
76606;SDS011;65498;50.916;4.698;2023-03-11T09:55:20;4.92;;;1.87;;
76606;SDS011;65498;50.916;4.698;2023-03-11T09:58:01;8.28;;;2.27;;
76606;SDS011;65498;50.916;4.698;2023-03-11T10:00:31;5.80;;;1.65;;
76606;SDS011;65498;50.916;4.698;2023-03-11T10:02:59;7.10;;;1.80;;
76606;SDS011;65498;50.916;4.698;2023-03-11T10:05:28;3.95;;;1.50;;
76606;SDS011;65498;50.916;4.698;2023-03-11T10:07:59;5.08;;;1.40;;
76606;SDS011;65498;50.916;4.698;2023-03-11T10:10:29;6.47;;;1.87;;
76606;SDS011;65498;50.916;4.698;2023-03-11T10:13:03;3.85;;;1.37;;
76606;SDS011;65498;50.916;4.698;2023-03-11T10:15:39;4.83;;;1.42;;
76606;SDS011;65498;50.916;4.698;2023-03-11T10:18:30;6.28;;;1.85;;
76606;SDS011;65498;50.916;4.698;2023-03-11T10:21:10;5.50;;;1.62;;
76606;SDS011;65498;50.916;4.698;2023-03-11T10:26:41;5.22;;;1.72;;
76606;SDS011;65498;50.916;4.698;2023-03-11T10:29:16;5.75;;;1.80;;
76606;SDS011;65498;50.916;4.698;2023-03-11T10:31:46;5.37;;;1.50;;
76606;SDS011;65498;50.916;4.698;2023-03-11T10:34:29;5.62;;;1.55;;
76606;SDS011;65498;50.916;4.698;2023-03-11T10:37:01;4.70;;;1.60;;
76606;SDS011;65498;50.916;4.698;2023-03-11T10:39:47;7.87;;;1.50;;
76606;SDS011;65498;50.916;4.698;2023-03-11T10:42:20;6.35;;;1.90;;
76606;SDS011;65498;50.916;4.698;2023-03-11T10:44:46;5.05;;;1.45;;
76606;SDS011;65498;50.916;4.698;2023-03-11T10:47:20;4.90;;;1.20;;
76606;SDS011;65498;50.916;4.698;2023-03-11T10:49:50;5.17;;;1.77;;
76606;SDS011;65498;50.916;4.698;2023-03-11T10:52:18;4.90;;;1.80;;
76606;SDS011;65498;50.916;4.698;2023-03-11T10:54:47;4.10;;;1.40;;
76606;SDS011;65498;50.916;4.698;2023-03-11T10:57:27;4.65;;;1.40;;
76606;SDS011;65498;50.916;4.698;2023-03-11T10:59:57;4.28;;;1.47;;
76606;SDS011;65498;50.916;4.698;2023-03-11T11:02:27;4.53;;;1.20;;
76606;SDS011;65498;50.916;4.698;2023-03-11T11:07:48;5.43;;;1.40;;
76606;SDS011;65498;50.916;4.698;2023-03-11T11:10:35;5.45;;;1.30;;
76606;SDS011;65498;50.916;4.698;2023-03-11T11:15:56;3.62;;;1.25;;
76606;SDS011;65498;50.916;4.698;2023-03-11T11:21:36;5.42;;;1.70;;
76606;SDS011;65498;50.916;4.698;2023-03-11T11:26:36;3.92;;;1.10;;
76606;SDS011;65498;50.916;4.698;2023-03-11T11:29:12;3.27;;;0.85;;
76606;SDS011;65498;50.916;4.698;2023-03-11T11:31:39;3.22;;;1.17;;
76606;SDS011;65498;50.916;4.698;2023-03-11T11:34:28;4.53;;;1.12;;
76606;SDS011;65498;50.916;4.698;2023-03-11T11:36:58;5.92;;;1.52;;
76606;SDS011;65498;50.916;4.698;2023-03-11T11:39:38;3.52;;;1.00;;
76606;SDS011;65498;50.916;4.698;2023-03-11T11:42:19;3.75;;;1.10;;
76606;SDS011;65498;50.916;4.698;2023-03-11T11:44:54;4.22;;;1.17;;
76606;SDS011;65498;50.916;4.698;2023-03-11T11:47:23;3.85;;;1.30;;
76606;SDS011;65498;50.916;4.698;2023-03-11T11:49:57;3.30;;;0.95;;
76606;SDS011;65498;50.916;4.698;2023-03-11T11:52:34;5.67;;;1.07;;
76606;SDS011;65498;50.916;4.698;2023-03-11T11:55:19;4.70;;;1.07;;
76606;SDS011;65498;50.916;4.698;2023-03-11T11:57:48;5.22;;;2.25;;
76606;SDS011;65498;50.916;4.698;2023-03-11T12:08:35;3.42;;;1.10;;
76606;SDS011;65498;50.916;4.698;2023-03-11T12:11:16;3.98;;;1.05;;
76606;SDS011;65498;50.916;4.698;2023-03-11T12:13:49;2.77;;;1.07;;
76606;SDS011;65498;50.916;4.698;2023-03-11T12:19:01;4.00;;;1.20;;
76606;SDS011;65498;50.916;4.698;2023-03-11T12:21:47;5.12;;;1.20;;
76606;SDS011;65498;50.916;4.698;2023-03-11T12:27:02;1.95;;;0.85;;
76606;SDS011;65498;50.916;4.698;2023-03-11T12:29:33;5.30;;;1.15;;
76606;SDS011;65498;50.916;4.698;2023-03-11T12:32:03;10.58;;;2.60;;
76606;SDS011;65498;50.916;4.698;2023-03-11T12:34:33;10.00;;;3.15;;
76606;SDS011;65498;50.916;4.698;2023-03-11T12:37:01;9.38;;;2.33;;
76606;SDS011;65498;50.916;4.698;2023-03-11T12:39:32;8.55;;;1.70;;
76606;SDS011;65498;50.916;4.698;2023-03-11T12:44:46;7.45;;;2.58;;
76606;SDS011;65498;50.916;4.698;2023-03-11T12:47:27;7.03;;;2.20;;
76606;SDS011;65498;50.916;4.698;2023-03-11T12:49:55;8.40;;;2.15;;
76606;SDS011;65498;50.916;4.698;2023-03-11T12:52:26;5.85;;;1.50;;
76606;SDS011;65498;50.916;4.698;2023-03-11T12:57:33;7.78;;;1.90;;
76606;SDS011;65498;50.916;4.698;2023-03-11T13:00:21;6.08;;;1.70;;
76606;SDS011;65498;50.916;4.698;2023-03-11T13:16:49;6.35;;;1.75;;
76606;SDS011;65498;50.916;4.698;2023-03-11T13:21:54;6.00;;;1.67;;
76606;SDS011;65498;50.916;4.698;2023-03-11T13:29:43;6.60;;;1.42;;
76606;SDS011;65498;50.916;4.698;2023-03-11T13:32:31;5.15;;;1.40;;
76606;SDS011;65498;50.916;4.698;2023-03-11T13:41:01;4.78;;;1.05;;
76606;SDS011;65498;50.916;4.698;2023-03-11T13:43:30;3.80;;;1.47;;
76606;SDS011;65498;50.916;4.698;2023-03-11T13:45:59;5.45;;;1.25;;
76606;SDS011;65498;50.916;4.698;2023-03-11T13:48:29;4.53;;;1.40;;
76606;SDS011;65498;50.916;4.698;2023-03-11T13:54:01;4.28;;;1.20;;
76606;SDS011;65498;50.916;4.698;2023-03-11T14:02:00;5.30;;;1.30;;
76606;SDS011;65498;50.916;4.698;2023-03-11T14:04:34;3.37;;;0.90;;
76606;SDS011;65498;50.916;4.698;2023-03-11T14:07:12;3.62;;;1.17;;
76606;SDS011;65498;50.916;4.698;2023-03-11T14:09:41;3.62;;;1.00;;
76606;SDS011;65498;50.916;4.698;2023-03-11T14:12:09;4.00;;;1.27;;
76606;SDS011;65498;50.916;4.698;2023-03-11T14:14:53;5.87;;;1.20;;
76606;SDS011;65498;50.916;4.698;2023-03-11T14:17:27;6.90;;;1.95;;
76606;SDS011;65498;50.916;4.698;2023-03-11T14:20:05;5.33;;;1.20;;
76606;SDS011;65498;50.916;4.698;2023-03-11T14:22:35;4.95;;;1.20;;
76606;SDS011;65498;50.916;4.698;2023-03-11T14:25:05;4.12;;;1.30;;
76606;SDS011;65498;50.916;4.698;2023-03-11T14:27:34;5.65;;;1.80;;
76606;SDS011;65498;50.916;4.698;2023-03-11T14:30:05;4.00;;;1.35;;
76606;SDS011;65498;50.916;4.698;2023-03-11T14:32:34;4.50;;;1.20;;
76606;SDS011;65498;50.916;4.698;2023-03-11T14:35:16;4.90;;;1.40;;
76606;SDS011;65498;50.916;4.698;2023-03-11T14:37:34;4.55;;;1.27;;
76606;SDS011;65498;50.916;4.698;2023-03-11T14:40:17;3.77;;;1.02;;
76606;SDS011;65498;50.916;4.698;2023-03-11T14:42:49;5.00;;;1.47;;
76606;SDS011;65498;50.916;4.698;2023-03-11T14:45:20;3.50;;;1.10;;
76606;SDS011;65498;50.916;4.698;2023-03-11T14:47:52;4.53;;;1.30;;
76606;SDS011;65498;50.916;4.698;2023-03-11T14:50:23;3.95;;;1.30;;
76606;SDS011;65498;50.916;4.698;2023-03-11T14:55:42;5.10;;;1.17;;
76606;SDS011;65498;50.916;4.698;2023-03-11T14:58:31;2.98;;;0.78;;
76606;SDS011;65498;50.916;4.698;2023-03-11T15:01:05;3.08;;;0.75;;
76606;SDS011;65498;50.916;4.698;2023-03-11T15:03:48;3.75;;;0.95;;
76606;SDS011;65498;50.916;4.698;2023-03-11T15:06:27;2.60;;;0.95;;
76606;SDS011;65498;50.916;4.698;2023-03-11T15:08:59;3.90;;;1.10;;
76606;SDS011;65498;50.916;4.698;2023-03-11T15:11:29;3.15;;;0.95;;
76606;SDS011;65498;50.916;4.698;2023-03-11T15:14:12;3.10;;;0.85;;
76606;SDS011;65498;50.916;4.698;2023-03-11T15:16:40;3.47;;;0.80;;
76606;SDS011;65498;50.916;4.698;2023-03-11T15:21:51;3.37;;;1.00;;
76606;SDS011;65498;50.916;4.698;2023-03-11T15:24:24;5.75;;;1.30;;
76606;SDS011;65498;50.916;4.698;2023-03-11T15:27:00;2.95;;;0.70;;
76606;SDS011;65498;50.916;4.698;2023-03-11T15:29:29;4.95;;;1.00;;
76606;SDS011;65498;50.916;4.698;2023-03-11T15:31:58;4.00;;;1.00;;
76606;SDS011;65498;50.916;4.698;2023-03-11T15:34:30;4.08;;;1.40;;
76606;SDS011;65498;50.916;4.698;2023-03-11T15:37:05;3.55;;;0.85;;
76606;SDS011;65498;50.916;4.698;2023-03-11T15:44:41;3.27;;;1.05;;
76606;SDS011;65498;50.916;4.698;2023-03-11T15:47:27;4.72;;;1.10;;
76606;SDS011;65498;50.916;4.698;2023-03-11T15:49:55;2.77;;;0.80;;
76606;SDS011;65498;50.916;4.698;2023-03-11T15:52:22;4.90;;;0.90;;
76606;SDS011;65498;50.916;4.698;2023-03-11T15:54:50;3.67;;;0.80;;
76606;SDS011;65498;50.916;4.698;2023-03-11T15:57:20;4.30;;;1.85;;
76606;SDS011;65498;50.916;4.698;2023-03-11T15:59:49;2.80;;;0.80;;
76606;SDS011;65498;50.916;4.698;2023-03-11T16:02:23;2.30;;;0.80;;
76606;SDS011;65498;50.916;4.698;2023-03-11T16:04:48;3.60;;;0.90;;
76606;SDS011;65498;50.916;4.698;2023-03-11T16:07:16;4.80;;;1.05;;
76606;SDS011;65498;50.916;4.698;2023-03-11T16:09:44;2.87;;;0.80;;
76606;SDS011;65498;50.916;4.698;2023-03-11T16:12:17;5.22;;;1.20;;
76606;SDS011;65498;50.916;4.698;2023-03-11T16:14:42;3.75;;;0.95;;
76606;SDS011;65498;50.916;4.698;2023-03-11T16:17:10;5.15;;;1.35;;
76606;SDS011;65498;50.916;4.698;2023-03-11T16:19:42;3.02;;;0.93;;
76606;SDS011;65498;50.916;4.698;2023-03-11T16:22:30;3.92;;;1.00;;
76606;SDS011;65498;50.916;4.698;2023-03-11T16:24:44;2.90;;;0.80;;
76606;SDS011;65498;50.916;4.698;2023-03-11T16:27:13;4.15;;;0.90;;
76606;SDS011;65498;50.916;4.698;2023-03-11T16:29:43;4.62;;;0.93;;
76606;SDS011;65498;50.916;4.698;2023-03-11T16:32:11;2.45;;;0.88;;
76606;SDS011;65498;50.916;4.698;2023-03-11T16:34:39;4.92;;;1.95;;
76606;SDS011;65498;50.916;4.698;2023-03-11T16:37:07;2.52;;;0.78;;
76606;SDS011;65498;50.916;4.698;2023-03-11T16:39:36;3.65;;;0.90;;
76606;SDS011;65498;50.916;4.698;2023-03-11T16:42:03;4.28;;;1.00;;
76606;SDS011;65498;50.916;4.698;2023-03-11T16:44:31;4.03;;;1.30;;
76606;SDS011;65498;50.916;4.698;2023-03-11T16:46:59;3.55;;;1.20;;